Time;durP1;ratioP1;P1;durP2;ratioP2;P2;SDS_P1;SDS_P2;PMS_P1;PMS_P2;Temp;Humidity;BMP_temperature;BMP_pressure;BME280_temperature;BME280_humidity;BME280_pressure;Samples;Min_cycle;Max_cycle;Signal;HPM_P1;HPM_P2
2024/02/29 00:02:21;;;;;;;29.67;16.63;;;;;;;;;;4999260;28;20037;-81
2024/02/29 00:04:47;;;;;;;28.83;16.05;;;;;;;;;;5078391;28;20029;-73
2024/02/29 00:07:14;;;;;;;29.13;15.32;;;;;;;;;;5010710;28;20133;-80
2024/02/29 00:09:40;;;;;;;35.42;15.43;;;;;;;;;;5011336;28;20383;-80
2024/02/29 00:12:06;;;;;;;31.50;15.23;;;;;;;;;;5010536;28;20032;-73
2024/02/29 00:14:32;;;;;;;32.60;16.63;;;;;;;;;;5078339;28;20033;-81
2024/02/29 00:17:00;;;;;;;31.92;17.90;;;;;;;;;;5078099;28;20022;-73
2024/02/29 00:19:27;;;;;;;35.67;17.90;;;;;;;;;;5078648;28;20018;-74
2024/02/29 00:21:53;;;;;;;28.55;15.50;;;;;;;;;;5078049;28;20053;-83
2024/02/29 00:24:19;;;;;;;36.38;16.80;;;;;;;;;;5001764;28;20152;-73
2024/02/29 00:26:45;;;;;;;31.02;15.52;;;;;;;;;;5008562;28;20036;-73
2024/02/29 00:29:11;;;;;;;28.42;14.90;;;;;;;;;;5078181;28;20026;-73
2024/02/29 00:31:42;;;;;;;32.15;14.98;;;;;;;;;;5077943;28;20105;-73
2024/02/29 00:34:08;;;;;;;27.95;15.40;;;;;;;;;;5078147;28;20361;-73
2024/02/29 00:36:34;;;;;;;34.03;16.65;;;;;;;;;;5010407;28;20029;-80
2024/02/29 00:39:00;;;;;;;32.80;15.60;;;;;;;;;;5075028;28;20369;-74
2024/02/29 00:41:26;;;;;;;32.53;17.70;;;;;;;;;;5009860;28;20133;-73
2024/02/29 00:43:52;;;;;;;32.92;16.45;;;;;;;;;;5010424;28;20045;-73
2024/02/29 00:46:18;;;;;;;37.03;17.70;;;;;;;;;;5010223;28;20042;-73
2024/02/29 00:48:45;;;;;;;41.10;19.60;;;;;;;;;;5077843;28;20030;-73
2024/02/29 00:51:11;;;;;;;35.10;17.92;;;;;;;;;;5009890;28;20460;-73
2024/02/29 00:53:37;;;;;;;34.22;18.30;;;;;;;;;;5077824;28;20399;-80
2024/02/29 00:56:03;;;;;;;44.22;21.20;;;;;;;;;;5077739;28;20030;-73
2024/02/29 00:58:29;;;;;;;43.97;19.00;;;;;;;;;;5010296;28;20032;-73
2024/02/29 01:00:55;;;;;;;41.97;19.83;;;;;;;;;;5077559;28;20057;-80
2024/02/29 01:03:21;;;;;;;43.95;19.98;;;;;;;;;;5008069;28;20074;-80
2024/02/29 01:05:47;;;;;;;45.92;21.85;;;;;;;;;;5077355;28;20126;-80
2024/02/29 01:08:13;;;;;;;43.22;21.65;;;;;;;;;;5077228;28;20090;-80
2024/02/29 01:10:39;;;;;;;48.88;21.67;;;;;;;;;;5077465;28;20051;-73
2024/02/29 01:13:06;;;;;;;55.97;22.80;;;;;;;;;;5077647;28;20026;-74
2024/02/29 01:15:32;;;;;;;51.20;23.08;;;;;;;;;;5077792;28;20023;-80
2024/02/29 01:17:58;;;;;;;52.40;23.80;;;;;;;;;;5009963;28;20026;-74
2024/02/29 01:20:24;;;;;;;50.70;22.80;;;;;;;;;;5076287;28;20053;-74
2024/02/29 01:22:51;;;;;;;53.20;23.20;;;;;;;;;;5075644;28;20472;-81
2024/02/29 01:25:17;;;;;;;53.00;23.73;;;;;;;;;;5077109;28;20421;-81
2024/02/29 01:27:43;;;;;;;56.00;24.13;;;;;;;;;;5077260;28;20120;-81
2024/02/29 01:30:09;;;;;;;59.95;24.55;;;;;;;;;;5077296;28;20479;-74
2024/02/29 01:32:36;;;;;;;52.65;24.13;;;;;;;;;;5009923;28;20061;-74
2024/02/29 01:35:02;;;;;;;57.88;24.25;;;;;;;;;;5009731;28;20456;-74
2024/02/29 01:37:28;;;;;;;59.17;23.45;;;;;;;;;;5009461;28;20029;-81
2024/02/29 01:39:54;;;;;;;56.22;23.80;;;;;;;;;;5009482;28;20457;-74
2024/02/29 01:42:20;;;;;;;47.75;22.45;;;;;;;;;;5076994;28;20433;-74
2024/02/29 01:44:53;;;;;;;40.97;19.92;;;;;;;;;;5006602;28;20467;-74
2024/02/29 01:47:19;;;;;;;36.72;19.77;;;;;;;;;;5003969;28;20034;-81
2024/02/29 01:49:47;;;;;;;41.00;20.15;;;;;;;;;;5075754;28;20022;-81
2024/02/29 01:52:15;;;;;;;37.92;19.85;;;;;;;;;;5007851;28;20030;-81
2024/02/29 01:54:41;;;;;;;38.00;18.67;;;;;;;;;;5076530;28;20029;-74
2024/02/29 01:57:08;;;;;;;37.65;19.52;;;;;;;;;;5077349;28;20519;-81
2024/02/29 01:59:36;;;;;;;38.88;19.45;;;;;;;;;;5077206;28;20440;-75
2024/02/29 02:02:02;;;;;;;38.55;19.42;;;;;;;;;;5009435;28;20380;-81
2024/02/29 02:04:29;;;;;;;36.30;18.88;;;;;;;;;;5008936;28;20018;-82
2024/02/29 02:06:57;;;;;;;40.35;19.73;;;;;;;;;;5077023;28;20037;-75
2024/02/29 02:09:23;;;;;;;38.38;18.67;;;;;;;;;;5077148;28;20041;-75
2024/02/29 02:11:49;;;;;;;38.42;18.98;;;;;;;;;;5009275;28;20034;-82
2024/02/29 02:14:15;;;;;;;37.83;18.77;;;;;;;;;;5074253;28;20500;-82
2024/02/29 02:16:41;;;;;;;36.38;19.13;;;;;;;;;;4990604;28;20031;-81
2024/02/29 02:19:12;;;;;;;37.78;18.70;;;;;;;;;;5074947;28;20030;-81
2024/02/29 02:21:38;;;;;;;36.08;18.88;;;;;;;;;;5008847;28;20033;-82
2024/02/29 02:24:04;;;;;;;38.08;19.45;;;;;;;;;;5010633;28;20022;-82
2024/02/29 02:26:30;;;;;;;37.65;18.35;;;;;;;;;;5012761;28;20088;-82
2024/02/29 02:28:56;;;;;;;37.42;19.55;;;;;;;;;;5080666;28;20592;-82
2024/02/29 02:31:22;;;;;;;32.42;16.75;;;;;;;;;;5080406;28;20415;-81
2024/02/29 02:33:48;;;;;;;35.78;18.10;;;;;;;;;;5012598;28;20026;-81
2024/02/29 02:36:15;;;;;;;36.72;19.33;;;;;;;;;;5008710;28;20071;-81
2024/02/29 02:38:41;;;;;;;38.58;19.48;;;;;;;;;;5009409;28;20030;-81
2024/02/29 02:41:07;;;;;;;42.33;21.13;;;;;;;;;;5004905;28;20088;-81
2024/02/29 02:43:33;;;;;;;40.90;19.85;;;;;;;;;;5008208;28;20026;-80
2024/02/29 02:45:59;;;;;;;41.65;20.02;;;;;;;;;;5076429;28;20038;-81
2024/02/29 02:48:25;;;;;;;44.45;19.77;;;;;;;;;;5079434;28;20034;-81
2024/02/29 02:50:51;;;;;;;46.10;20.73;;;;;;;;;;5073393;28;20022;-81
2024/02/29 02:53:18;;;;;;;44.65;19.75;;;;;;;;;;5072498;28;20034;-81
2024/02/29 02:55:44;;;;;;;33.13;18.70;;;;;;;;;;5074647;28;20026;-81
2024/02/29 02:58:10;;;;;;;40.50;19.77;;;;;;;;;;5008759;28;20022;-81
2024/02/29 03:00:36;;;;;;;39.45;19.58;;;;;;;;;;5011627;28;20053;-74
2024/02/29 03:03:03;;;;;;;44.80;20.98;;;;;;;;;;5011868;28;20109;-74
2024/02/29 03:05:29;;;;;;;40.22;18.55;;;;;;;;;;5011851;28;20030;-81
2024/02/29 03:07:55;;;;;;;38.33;17.80;;;;;;;;;;5004154;28;20065;-81
2024/02/29 03:10:22;;;;;;;40.30;20.08;;;;;;;;;;5073039;28;20475;-82
2024/02/29 03:12:49;;;;;;;40.97;17.67;;;;;;;;;;5069680;28;20026;-77
2024/02/29 03:15:15;;;;;;;40.63;18.58;;;;;;;;;;4998142;28;20437;-81
2024/02/29 03:17:41;;;;;;;44.00;18.60;;;;;;;;;;5002259;28;20029;-81
2024/02/29 03:20:13;;;;;;;30.77;16.88;;;;;;;;;;5010868;28;20104;-81
2024/02/29 03:22:42;;;;;;;36.38;16.17;;;;;;;;;;5011724;28;20026;-81
2024/02/29 03:25:09;;;;;;;35.60;17.25;;;;;;;;;;5011453;28;20018;-75
2024/02/29 03:27:35;;;;;;;38.17;18.52;;;;;;;;;;5079692;28;20510;-81
2024/02/29 03:30:02;;;;;;;42.03;18.90;;;;;;;;;;5079302;28;20018;-81
2024/02/29 03:32:28;;;;;;;37.10;17.42;;;;;;;;;;5079268;28;20049;-76
2024/02/29 03:34:54;;;;;;;39.25;18.73;;;;;;;;;;5078009;28;20021;-80
2024/02/29 03:37:20;;;;;;;37.80;16.23;;;;;;;;;;5011487;28;20045;-81
2024/02/29 03:39:46;;;;;;;41.28;17.73;;;;;;;;;;4998434;28;20069;-81
2024/02/29 03:42:13;;;;;;;40.75;17.67;;;;;;;;;;5011541;28;20025;-74
2024/02/29 03:44:43;;;;;;;39.15;17.33;;;;;;;;;;5079143;28;20524;-74
2024/02/29 03:47:10;;;;;;;43.03;17.98;;;;;;;;;;5079072;28;20513;-81
2024/02/29 03:49:36;;;;;;;36.60;17.50;;;;;;;;;;5079030;28;20067;-81
2024/02/29 03:52:02;;;;;;;36.15;16.35;;;;;;;;;;5011376;28;20383;-82
2024/02/29 03:54:28;;;;;;;35.42;17.85;;;;;;;;;;5078260;28;20492;-82
2024/02/29 03:56:55;;;;;;;38.28;18.30;;;;;;;;;;5078886;28;20117;-82
2024/02/29 03:59:21;;;;;;;35.58;17.08;;;;;;;;;;5005723;28;20026;-81
2024/02/29 04:01:50;;;;;;;37.53;17.90;;;;;;;;;;4991611;28;20030;-82
2024/02/29 04:04:19;;;;;;;42.85;18.25;;;;;;;;;;5064548;28;20550;-76
2024/02/29 04:06:45;;;;;;;41.30;18.27;;;;;;;;;;5011242;28;20441;-82
2024/02/29 04:09:12;;;;;;;47.95;18.80;;;;;;;;;;5078865;28;20388;-82
2024/02/29 04:11:38;;;;;;;43.42;17.38;;;;;;;;;;5011089;28;20025;-76
2024/02/29 04:14:04;;;;;;;42.72;18.27;;;;;;;;;;5065576;28;20109;-82
2024/02/29 04:16:35;;;;;;;43.70;20.98;;;;;;;;;;5011037;28;20029;-75
2024/02/29 04:19:01;;;;;;;48.20;18.73;;;;;;;;;;5003630;28;20029;-82
2024/02/29 04:21:27;;;;;;;42.60;18.52;;;;;;;;;;5073065;28;20022;-74
2024/02/29 04:23:53;;;;;;;51.50;21.38;;;;;;;;;;5003125;28;20113;-74
2024/02/29 04:26:20;;;;;;;47.10;19.30;;;;;;;;;;5072949;28;20040;-82
2024/02/29 04:28:46;;;;;;;43.35;18.95;;;;;;;;;;5010437;28;20057;-74
2024/02/29 04:31:12;;;;;;;45.58;17.25;;;;;;;;;;5077929;28;20022;-82
2024/02/29 04:33:38;;;;;;;41.13;18.58;;;;;;;;;;5078503;28;20022;-82
2024/02/29 04:36:04;;;;;;;42.80;18.25;;;;;;;;;;5078001;28;20036;-82
2024/02/29 04:38:30;;;;;;;50.65;18.23;;;;;;;;;;5078300;28;20087;-74
2024/02/29 04:40:56;;;;;;;46.08;18.55;;;;;;;;;;5010090;28;20046;-81
2024/02/29 04:43:22;;;;;;;51.13;18.75;;;;;;;;;;5010655;28;20050;-81
2024/02/29 04:45:49;;;;;;;44.67;17.45;;;;;;;;;;5077606;28;20394;-75
2024/02/29 04:48:15;;;;;;;43.83;18.75;;;;;;;;;;5078071;28;20022;-82
2024/02/29 04:50:41;;;;;;;52.20;19.90;;;;;;;;;;5076473;28;20030;-82
2024/02/29 04:53:07;;;;;;;50.17;19.70;;;;;;;;;;4999267;28;20018;-82
2024/02/29 04:55:34;;;;;;;48.20;19.88;;;;;;;;;;5078089;28;20041;-82
2024/02/29 04:58:00;;;;;;;55.47;20.27;;;;;;;;;;5009212;28;20407;-82
2024/02/29 05:00:26;;;;;;;55.40;20.38;;;;;;;;;;5010768;28;20080;-74
2024/02/29 05:02:52;;;;;;;58.03;21.65;;;;;;;;;;5010403;28;20022;-81
2024/02/29 05:05:19;;;;;;;49.10;18.58;;;;;;;;;;5077669;28;20022;-74
2024/02/29 05:07:46;;;;;;;54.88;21.67;;;;;;;;;;5077698;28;20120;-82
2024/02/29 05:10:12;;;;;;;57.00;22.70;;;;;;;;;;4997006;28;20529;-81
2024/02/29 05:12:38;;;;;;;63.92;22.55;;;;;;;;;;5010105;28;20033;-81
2024/02/29 05:15:05;;;;;;;68.72;22.58;;;;;;;;;;5009589;28;20029;-81
2024/02/29 05:17:31;;;;;;;72.10;22.00;;;;;;;;;;5077847;28;20030;-75
2024/02/29 05:19:58;;;;;;;68.43;24.92;;;;;;;;;;5009925;28;20041;-81
2024/02/29 05:22:24;;;;;;;62.58;21.77;;;;;;;;;;5010092;28;20026;-81
2024/02/29 05:24:50;;;;;;;71.40;25.92;;;;;;;;;;5009803;28;20528;-82
2024/02/29 05:27:16;;;;;;;72.60;23.00;;;;;;;;;;5077739;28;20026;-82
2024/02/29 05:29:42;;;;;;;53.97;24.20;;;;;;;;;;5076544;28;20031;-75
2024/02/29 05:32:08;;;;;;;62.50;22.25;;;;;;;;;;5077643;28;20053;-82
2024/02/29 05:34:34;;;;;;;71.38;23.10;;;;;;;;;;5009534;28;20037;-82
2024/02/29 05:37:00;;;;;;;70.63;21.77;;;;;;;;;;5009992;28;20033;-74
2024/02/29 05:39:27;;;;;;;68.88;22.05;;;;;;;;;;5076853;28;20037;-74
2024/02/29 05:41:55;;;;;;;65.70;20.77;;;;;;;;;;5009874;28;20026;-75
2024/02/29 05:44:22;;;;;;;66.68;22.23;;;;;;;;;;5077308;28;20072;-75
2024/02/29 05:46:48;;;;;;;76.60;23.58;;;;;;;;;;5077368;28;20042;-75
2024/02/29 05:49:14;;;;;;;71.93;21.70;;;;;;;;;;5077872;28;20040;-82
2024/02/29 05:51:40;;;;;;;71.55;22.55;;;;;;;;;;5009706;28;20440;-75
2024/02/29 05:54:06;;;;;;;69.28;21.23;;;;;;;;;;5076822;28;20049;-74
2024/02/29 05:56:32;;;;;;;63.90;20.73;;;;;;;;;;5009751;28;20026;-74
2024/02/29 05:58:58;;;;;;;68.47;19.30;;;;;;;;;;5011499;28;20028;-81
2024/02/29 06:01:24;;;;;;;53.47;17.88;;;;;;;;;;5080329;28;20038;-82
2024/02/29 06:03:50;;;;;;;59.97;20.55;;;;;;;;;;5012161;28;20038;-74
2024/02/29 06:06:16;;;;;;;54.25;19.95;;;;;;;;;;5080847;28;20098;-75
2024/02/29 06:08:43;;;;;;;63.47;21.33;;;;;;;;;;5010820;28;20065;-74
2024/02/29 06:11:13;;;;;;;74.05;22.27;;;;;;;;;;5080760;28;20026;-76
2024/02/29 06:13:40;;;;;;;63.38;21.90;;;;;;;;;;5000194;28;20022;-76
2024/02/29 06:16:06;;;;;;;65.65;22.25;;;;;;;;;;5079020;28;20053;-73
2024/02/29 06:18:33;;;;;;;57.47;21.77;;;;;;;;;;5080452;28;20023;-75
2024/02/29 06:20:59;;;;;;;68.45;22.80;;;;;;;;;;5012480;28;20630;-81
2024/02/29 06:23:25;;;;;;;64.25;20.13;;;;;;;;;;5012609;28;20034;-76
2024/02/29 06:25:51;;;;;;;68.57;21.00;;;;;;;;;;5012338;28;20462;-75
2024/02/29 06:28:17;;;;;;;58.72;19.05;;;;;;;;;;5010881;28;20029;-75
2024/02/29 06:30:43;;;;;;;71.43;22.85;;;;;;;;;;4998504;28;20430;-82
2024/02/29 06:33:09;;;;;;;74.68;22.98;;;;;;;;;;5082010;28;20026;-76
2024/02/29 06:35:35;;;;;;;62.42;22.38;;;;;;;;;;5012708;28;20025;-83
2024/02/29 06:38:01;;;;;;;56.95;21.73;;;;;;;;;;5079196;28;20501;-82
2024/02/29 06:40:27;;;;;;;62.50;21.00;;;;;;;;;;5062328;28;20049;-82
2024/02/29 06:42:54;;;;;;;57.28;20.65;;;;;;;;;;5077571;28;20114;-82
2024/02/29 06:45:20;;;;;;;56.05;21.13;;;;;;;;;;5009713;28;20049;-76
2024/02/29 06:47:46;;;;;;;59.60;23.27;;;;;;;;;;5076498;28;20030;-75
2024/02/29 06:50:12;;;;;;;71.53;26.00;;;;;;;;;;5074550;28;20026;-74
2024/02/29 06:52:38;;;;;;;85.90;24.10;;;;;;;;;;5072613;28;20503;-76
2024/02/29 06:55:08;;;;;;;67.88;25.30;;;;;;;;;;5069250;28;20030;-75
2024/02/29 06:57:35;;;;;;;81.90;26.88;;;;;;;;;;4992296;28;20102;-76
2024/02/29 07:00:01;;;;;;;80.10;26.63;;;;;;;;;;5000281;28;20034;-76
2024/02/29 07:02:27;;;;;;;70.18;25.02;;;;;;;;;;5076919;28;20087;-83
2024/02/29 07:04:54;;;;;;;67.10;24.77;;;;;;;;;;5008058;28;20056;-83
2024/02/29 07:07:24;;;;;;;70.85;24.25;;;;;;;;;;5000525;28;20062;-83
2024/02/29 07:09:50;;;;;;;72.57;22.95;;;;;;;;;;5078064;28;20028;-82
2024/02/29 07:12:16;;;;;;;60.95;23.02;;;;;;;;;;5011601;28;20068;-83
2024/02/29 07:14:42;;;;;;;67.47;22.67;;;;;;;;;;5001805;28;20033;-83
2024/02/29 07:17:08;;;;;;;71.30;25.23;;;;;;;;;;5079213;28;20018;-83
2024/02/29 07:19:34;;;;;;;74.38;24.83;;;;;;;;;;5006353;28;20491;-83
2024/02/29 07:22:01;;;;;;;61.17;23.58;;;;;;;;;;5077159;28;20079;-83
2024/02/29 07:24:27;;;;;;;55.67;21.00;;;;;;;;;;5008014;28;20101;-82
2024/02/29 07:26:53;;;;;;;68.50;24.60;;;;;;;;;;5078262;28;20034;-83
2024/02/29 07:29:20;;;;;;;60.03;23.25;;;;;;;;;;5076415;28;20476;-83
2024/02/29 07:31:47;;;;;;;55.45;21.92;;;;;;;;;;5077402;28;20109;-82
2024/02/29 07:34:15;;;;;;;53.58;20.55;;;;;;;;;;4994422;28;20491;-77
2024/02/29 07:36:41;;;;;;;53.00;20.67;;;;;;;;;;4993373;28;20030;-77
2024/02/29 07:39:08;;;;;;;55.55;20.73;;;;;;;;;;4993149;28;20472;-82
2024/02/29 07:41:34;;;;;;;61.38;24.52;;;;;;;;;;5072502;28;20050;-82
2024/02/29 07:44:01;;;;;;;55.42;21.52;;;;;;;;;;5075754;28;20037;-74
2024/02/29 07:46:27;;;;;;;59.35;22.80;;;;;;;;;;5008240;28;20042;-80
2024/02/29 07:48:53;;;;;;;58.08;22.38;;;;;;;;;;5009451;28;20037;-74
2024/02/29 07:51:19;;;;;;;50.42;20.02;;;;;;;;;;5009630;28;20022;-74
2024/02/29 07:53:45;;;;;;;50.33;21.95;;;;;;;;;;5041367;28;20042;-80
2024/02/29 07:56:11;;;;;;;48.58;20.35;;;;;;;;;;5007617;28;20022;-75
2024/02/29 07:58:37;;;;;;;44.67;19.30;;;;;;;;;;5007518;28;20051;-75
2024/02/29 08:01:04;;;;;;;48.00;20.67;;;;;;;;;;5002162;28;20373;-75
2024/02/29 08:03:30;;;;;;;51.33;21.25;;;;;;;;;;5005763;28;20021;-80
2024/02/29 08:05:56;;;;;;;54.88;22.10;;;;;;;;;;4991895;28;20119;-80
2024/02/29 08:08:22;;;;;;;39.58;18.50;;;;;;;;;;5081736;28;20098;-75
2024/02/29 08:10:49;;;;;;;42.83;20.13;;;;;;;;;;5006161;28;20547;-80
2024/02/29 08:13:15;;;;;;;47.05;21.13;;;;;;;;;;5011086;28;20033;-80
2024/02/29 08:15:41;;;;;;;44.67;20.13;;;;;;;;;;5077975;28;20026;-80
2024/02/29 08:18:07;;;;;;;46.63;21.65;;;;;;;;;;5005361;28;20075;-75
2024/02/29 08:20:34;;;;;;;44.22;20.20;;;;;;;;;;5078038;28;20061;-80
2024/02/29 08:23:00;;;;;;;46.80;21.58;;;;;;;;;;5078250;28;20084;-75
2024/02/29 08:25:26;;;;;;;50.78;20.88;;;;;;;;;;5010751;28;20033;-75
2024/02/29 08:27:53;;;;;;;47.80;20.27;;;;;;;;;;5078415;28;20132;-75
2024/02/29 08:30:19;;;;;;;45.78;21.55;;;;;;;;;;5005129;28;20060;-80
2024/02/29 08:32:47;;;;;;;47.65;20.98;;;;;;;;;;5010472;28;20139;-80
2024/02/29 08:35:13;;;;;;;55.97;21.58;;;;;;;;;;5005217;28;20729;-80
2024/02/29 08:37:42;;;;;;;50.10;22.15;;;;;;;;;;5010414;28;20441;-81
2024/02/29 08:40:08;;;;;;;40.38;18.45;;;;;;;;;;5007022;28;20510;-81
2024/02/29 08:42:34;;;;;;;48.97;20.70;;;;;;;;;;5002336;28;20106;-80
2024/02/29 08:45:00;;;;;;;43.03;19.15;;;;;;;;;;5078078;28;20098;-75
2024/02/29 08:47:26;;;;;;;43.60;18.98;;;;;;;;;;5077780;28;20043;-81
2024/02/29 08:49:53;;;;;;;46.47;19.27;;;;;;;;;;5077734;28;20024;-80
2024/02/29 08:52:19;;;;;;;48.47;19.85;;;;;;;;;;5077696;28;20391;-80
2024/02/29 08:54:45;;;;;;;44.25;19.77;;;;;;;;;;5010465;28;20042;-75
2024/02/29 08:57:11;;;;;;;47.22;20.48;;;;;;;;;;5010077;28;20101;-81
2024/02/29 08:59:37;;;;;;;39.85;18.95;;;;;;;;;;5077687;28;20026;-80
2024/02/29 09:02:05;;;;;;;34.85;17.88;;;;;;;;;;5077672;28;20403;-80
2024/02/29 09:04:31;;;;;;;39.85;19.67;;;;;;;;;;5009694;28;20051;-77
2024/02/29 09:06:57;;;;;;;43.20;19.77;;;;;;;;;;5077649;28;20115;-75
2024/02/29 09:09:23;;;;;;;39.97;19.92;;;;;;;;;;4997087;28;20018;-75
2024/02/29 09:11:50;;;;;;;33.28;17.65;;;;;;;;;;5068210;28;20022;-75
2024/02/29 09:14:17;;;;;;;39.83;21.13;;;;;;;;;;5009913;28;20026;-75
2024/02/29 09:16:43;;;;;;;43.10;20.70;;;;;;;;;;5077693;28;20459;-75
2024/02/29 09:19:10;;;;;;;38.70;20.05;;;;;;;;;;5009904;28;20029;-81
2024/02/29 09:21:36;;;;;;;39.53;20.10;;;;;;;;;;5010019;28;20057;-75
2024/02/29 09:24:02;;;;;;;40.15;20.65;;;;;;;;;;5009584;28;20462;-75
2024/02/29 09:26:28;;;;;;;41.80;20.00;;;;;;;;;;5009501;28;20170;-80
2024/02/29 09:28:54;;;;;;;38.63;18.40;;;;;;;;;;5077515;28;20756;-75
2024/02/29 09:31:21;;;;;;;41.58;20.77;;;;;;;;;;5077253;28;20025;-80
2024/02/29 09:33:47;;;;;;;37.67;20.40;;;;;;;;;;5077926;28;20037;-75
2024/02/29 09:36:14;;;;;;;39.80;20.88;;;;;;;;;;5038845;28;20468;-80
2024/02/29 09:38:40;;;;;;;37.60;21.17;;;;;;;;;;5081361;28;20018;-75
2024/02/29 09:41:08;;;;;;;47.30;21.13;;;;;;;;;;5081600;28;20057;-81
2024/02/29 09:43:34;;;;;;;37.35;19.38;;;;;;;;;;5000266;28;20032;-76
2024/02/29 09:46:02;;;;;;;44.67;21.75;;;;;;;;;;5013195;28;20026;-75
2024/02/29 09:48:29;;;;;;;45.30;20.52;;;;;;;;;;5081211;28;20487;-80
2024/02/29 09:50:59;;;;;;;45.67;21.40;;;;;;;;;;5005297;28;20566;-76
2024/02/29 09:53:25;;;;;;;42.08;22.40;;;;;;;;;;5012604;28;20030;-80
2024/02/29 09:55:52;;;;;;;42.92;21.52;;;;;;;;;;5081476;28;20057;-80
2024/02/29 09:58:20;;;;;;;47.75;21.70;;;;;;;;;;5081043;28;20053;-81
2024/02/29 10:00:47;;;;;;;42.78;20.98;;;;;;;;;;5080380;28;20547;-81
2024/02/29 10:03:16;;;;;;;50.28;22.02;;;;;;;;;;5080936;28;20126;-80
2024/02/29 10:05:43;;;;;;;43.85;22.08;;;;;;;;;;5080445;28;20018;-76
2024/02/29 10:08:09;;;;;;;46.03;23.15;;;;;;;;;;5007354;28;20034;-75
2024/02/29 10:10:35;;;;;;;45.90;22.05;;;;;;;;;;5006548;28;20050;-80
2024/02/29 10:13:01;;;;;;;45.28;21.95;;;;;;;;;;5008145;28;20465;-80
2024/02/29 10:15:28;;;;;;;43.60;23.25;;;;;;;;;;5006533;28;20017;-75
2024/02/29 10:17:55;;;;;;;41.47;21.73;;;;;;;;;;5012438;28;20026;-80
2024/02/29 10:20:21;;;;;;;43.30;22.45;;;;;;;;;;5080367;28;20030;-75
2024/02/29 10:22:49;;;;;;;44.03;23.17;;;;;;;;;;5080714;28;20108;-80
2024/02/29 10:25:15;;;;;;;45.72;23.92;;;;;;;;;;5012336;28;20072;-76
2024/02/29 10:27:41;;;;;;;40.75;22.08;;;;;;;;;;5010825;28;20061;-75
2024/02/29 10:30:08;;;;;;;45.28;23.70;;;;;;;;;;5048705;28;20496;-80
2024/02/29 10:32:35;;;;;;;47.10;23.35;;;;;;;;;;5012419;28;20079;-80
2024/02/29 10:35:21;;;;;;;46.78;22.27;;;;;;;;;;5080291;28;20480;-81
2024/02/29 10:37:47;;;;;;;43.15;23.70;;;;;;;;;;5003174;28;20026;-80
2024/02/29 10:40:14;;;;;;;46.53;24.83;;;;;;;;;;5079902;28;20062;-75
2024/02/29 10:42:41;;;;;;;41.88;24.00;;;;;;;;;;5011893;28;20026;-81
2024/02/29 10:45:14;;;;;;;47.17;24.55;;;;;;;;;;5011967;28;20418;-80
2024/02/29 10:47:53;;;;;;;38.13;22.42;;;;;;;;;;5012195;28;20038;-76
2024/02/29 10:50:25;;;;;;;45.25;23.95;;;;;;;;;;5003518;28;20039;-75
2024/02/29 10:52:55;;;;;;;47.55;24.88;;;;;;;;;;5007974;28;20018;-75
2024/02/29 10:55:25;;;;;;;47.22;23.95;;;;;;;;;;5012307;28;20490;-80
2024/02/29 10:58:20;;;;;;;48.15;26.40;;;;;;;;;;5000764;28;20075;-76
2024/02/29 11:00:46;;;;;;;45.45;23.42;;;;;;;;;;5070968;28;20035;-76
2024/02/29 11:03:12;;;;;;;46.72;25.55;;;;;;;;;;5079904;28;20060;-76
2024/02/29 11:05:39;;;;;;;49.22;25.52;;;;;;;;;;5079156;28;20033;-75
2024/02/29 11:08:05;;;;;;;47.10;25.60;;;;;;;;;;5079714;28;20053;-75
2024/02/29 11:10:31;;;;;;;49.22;25.38;;;;;;;;;;5006229;28;20068;-75
2024/02/29 11:12:57;;;;;;;48.58;24.90;;;;;;;;;;5076464;28;20042;-80
2024/02/29 11:15:25;;;;;;;43.03;23.65;;;;;;;;;;5078843;28;20029;-80
2024/02/29 11:17:51;;;;;;;47.72;24.38;;;;;;;;;;5005914;28;20018;-80
2024/02/29 11:20:21;;;;;;;48.42;24.80;;;;;;;;;;5011561;28;20079;-80
2024/02/29 11:22:48;;;;;;;49.42;25.10;;;;;;;;;;5011651;28;20034;-76
2024/02/29 11:25:21;;;;;;;49.30;24.65;;;;;;;;;;4999105;28;20358;-76
2024/02/29 11:27:47;;;;;;;48.15;23.70;;;;;;;;;;5002190;28;20042;-80
2024/02/29 11:30:17;;;;;;;49.33;26.17;;;;;;;;;;5077234;28;20045;-80
2024/02/29 11:32:43;;;;;;;53.00;24.92;;;;;;;;;;5000030;28;20026;-81
2024/02/29 11:35:09;;;;;;;49.10;24.92;;;;;;;;;;4999721;28;20117;-81
2024/02/29 11:37:35;;;;;;;48.80;25.50;;;;;;;;;;4997726;28;20022;-81
2024/02/29 11:40:04;;;;;;;49.53;26.52;;;;;;;;;;5071686;28;20043;-81
2024/02/29 11:42:31;;;;;;;52.42;26.50;;;;;;;;;;5070822;28;20026;-81
2024/02/29 11:44:57;;;;;;;44.15;24.35;;;;;;;;;;5072537;28;20053;-81
2024/02/29 11:47:23;;;;;;;43.60;22.75;;;;;;;;;;5070450;28;20094;-81
2024/02/29 11:49:49;;;;;;;47.15;24.08;;;;;;;;;;5010403;28;20045;-81
2024/02/29 11:52:15;;;;;;;47.85;24.77;;;;;;;;;;5014799;28;20041;-80
2024/02/29 11:54:43;;;;;;;49.53;25.33;;;;;;;;;;5073676;28;20030;-81
2024/02/29 11:57:09;;;;;;;51.13;24.80;;;;;;;;;;5067046;28;20468;-80
2024/02/29 11:59:37;;;;;;;48.22;23.10;;;;;;;;;;5070475;28;20079;-80
2024/02/29 12:02:05;;;;;;;41.33;21.75;;;;;;;;;;5001473;28;20031;-80
2024/02/29 12:04:31;;;;;;;42.08;24.13;;;;;;;;;;5070116;28;20075;-80
2024/02/29 12:06:57;;;;;;;50.88;24.27;;;;;;;;;;4991029;28;20041;-80
2024/02/29 12:09:23;;;;;;;48.90;25.48;;;;;;;;;;5071181;28;20407;-80
2024/02/29 12:11:50;;;;;;;43.92;25.20;;;;;;;;;;5072146;28;20026;-80
2024/02/29 12:14:16;;;;;;;43.88;24.15;;;;;;;;;;4994528;28;20041;-81
2024/02/29 12:16:43;;;;;;;44.70;24.67;;;;;;;;;;5007802;28;20022;-81
2024/02/29 12:19:09;;;;;;;46.38;24.23;;;;;;;;;;5005202;28;20037;-81
2024/02/29 12:21:36;;;;;;;52.72;24.00;;;;;;;;;;5066768;28;20032;-80
2024/02/29 12:24:02;;;;;;;42.65;21.80;;;;;;;;;;5006779;28;20018;-80
2024/02/29 12:26:28;;;;;;;41.00;22.35;;;;;;;;;;5006839;28;20139;-75
2024/02/29 12:28:54;;;;;;;43.13;23.70;;;;;;;;;;5072039;28;20033;-75
2024/02/29 12:31:21;;;;;;;40.75;22.65;;;;;;;;;;5076656;28;20125;-75
2024/02/29 12:33:47;;;;;;;47.38;24.55;;;;;;;;;;5008917;28;20054;-75
2024/02/29 12:36:18;;;;;;;43.60;21.85;;;;;;;;;;5003720;28;20034;-75
2024/02/29 12:38:44;;;;;;;44.13;23.45;;;;;;;;;;5026284;28;20031;-74
2024/02/29 12:41:12;;;;;;;43.90;24.70;;;;;;;;;;5076967;28;20053;-75
2024/02/29 12:43:45;;;;;;;44.67;23.98;;;;;;;;;;4997921;28;20026;-74
2024/02/29 12:46:11;;;;;;;46.00;23.15;;;;;;;;;;5075538;28;20042;-75
2024/02/29 12:48:37;;;;;;;49.88;25.80;;;;;;;;;;5069337;28;20023;-75
2024/02/29 12:51:03;;;;;;;46.85;24.23;;;;;;;;;;5005728;28;20219;-75
2024/02/29 12:53:29;;;;;;;47.17;24.50;;;;;;;;;;4994507;28;20023;-75
2024/02/29 12:55:55;;;;;;;49.55;26.88;;;;;;;;;;5070998;28;20026;-74
2024/02/29 12:58:21;;;;;;;43.58;24.45;;;;;;;;;;5072016;28;20022;-75
2024/02/29 13:00:47;;;;;;;49.50;26.27;;;;;;;;;;5072202;28;20037;-74
2024/02/29 13:03:13;;;;;;;47.38;26.52;;;;;;;;;;5075578;28;20155;-76
2024/02/29 13:05:40;;;;;;;52.80;26.40;;;;;;;;;;5009993;28;20030;-75
2024/02/29 13:08:08;;;;;;;47.40;26.60;;;;;;;;;;5080992;28;20041;-73
2024/02/29 13:10:34;;;;;;;47.85;26.85;;;;;;;;;;5076520;28;20022;-74
2024/02/29 13:13:01;;;;;;;48.05;26.25;;;;;;;;;;5010105;28;20022;-73
2024/02/29 13:15:27;;;;;;;51.75;25.58;;;;;;;;;;4999033;28;20079;-73
2024/02/29 13:17:53;;;;;;;44.53;24.52;;;;;;;;;;5065484;28;20091;-75
2024/02/29 13:20:19;;;;;;;52.72;27.95;;;;;;;;;;5072589;28;20062;-74
2024/02/29 13:22:45;;;;;;;52.97;26.55;;;;;;;;;;4993171;28;20447;-74
2024/02/29 13:25:12;;;;;;;48.22;26.63;;;;;;;;;;5059090;28;20388;-74
2024/02/29 13:27:38;;;;;;;52.53;27.42;;;;;;;;;;5077189;28;20077;-75
2024/02/29 13:30:06;;;;;;;51.25;25.08;;;;;;;;;;5076259;28;20026;-74
2024/02/29 13:32:33;;;;;;;51.83;27.88;;;;;;;;;;5074760;28;20102;-74
2024/02/29 13:34:59;;;;;;;52.25;28.65;;;;;;;;;;5076848;28;20026;-74
2024/02/29 13:37:25;;;;;;;52.72;26.23;;;;;;;;;;5076852;28;20022;-74
2024/02/29 13:39:52;;;;;;;45.80;26.58;;;;;;;;;;4996251;28;20129;-74
2024/02/29 13:42:18;;;;;;;57.25;28.65;;;;;;;;;;4997881;28;20392;-74
2024/02/29 13:44:45;;;;;;;53.78;27.27;;;;;;;;;;4992781;28;20087;-74
2024/02/29 13:47:12;;;;;;;55.63;29.00;;;;;;;;;;5001866;28;20038;-74
2024/02/29 13:49:38;;;;;;;55.08;30.13;;;;;;;;;;5005128;28;20383;-74
2024/02/29 13:52:05;;;;;;;53.92;28.95;;;;;;;;;;5004761;28;20026;-74
2024/02/29 13:54:31;;;;;;;53.33;28.65;;;;;;;;;;5045951;28;20030;-74
2024/02/29 13:56:57;;;;;;;56.47;28.52;;;;;;;;;;4997488;28;20097;-74
2024/02/29 13:59:24;;;;;;;56.78;30.48;;;;;;;;;;5067045;28;20688;-74
2024/02/29 14:01:50;;;;;;;53.92;28.67;;;;;;;;;;5061707;28;20030;-74
2024/02/29 14:04:16;;;;;;;56.65;27.45;;;;;;;;;;5062389;28;20038;-75
2024/02/29 14:06:45;;;;;;;56.80;29.27;;;;;;;;;;5086639;28;20056;-74
2024/02/29 14:09:11;;;;;;;51.05;28.23;;;;;;;;;;5012299;28;20034;-74
2024/02/29 14:11:38;;;;;;;52.80;30.33;;;;;;;;;;5032552;28;20028;-79
2024/02/29 14:14:05;;;;;;;53.25;29.95;;;;;;;;;;5072672;28;20026;-80